Time;durP1;ratioP1;P1;durP2;ratioP2;P2;SDS_P1;SDS_P2;PMS_P1;PMS_P2;Temp;Humidity;BMP_temperature;BMP_pressure;BME280_temperature;BME280_humidity;BME280_pressure;Samples;Min_cycle;Max_cycle;Signal;HPM_P1;HPM_P2
2023/01/30 00:00:18;;;;;;;18.20;9.65;;;;;;;2.52;61.32;101066.75;4977121;28;20038;-76
2023/01/30 00:02:43;;;;;;;26.38;8.65;;;;;;;2.42;61.75;101040.13;4983916;28;20050;-76
2023/01/30 00:05:09;;;;;;;24.75;9.30;;;;;;;2.82;60.21;101044.25;4980112;28;20236;-75
2023/01/30 00:07:34;;;;;;;21.48;9.02;;;;;;;2.50;61.75;101019.44;4972430;28;20148;-76
2023/01/30 00:10:00;;;;;;;27.63;8.52;;;;;;;2.77;61.04;101027.06;4982989;28;20065;-76
2023/01/30 00:12:25;;;;;;;18.52;9.02;;;;;;;2.73;61.26;101020.22;4976684;28;20066;-76
2023/01/30 00:14:51;;;;;;;15.95;8.38;;;;;;;2.71;61.24;101032.25;4981331;28;20113;-76
2023/01/30 00:17:16;;;;;;;14.55;7.38;;;;;;;2.97;60.71;101000.28;4979746;28;20523;-76
2023/01/30 00:19:41;;;;;;;17.77;7.63;;;;;;;3.15;59.75;100991.53;4966032;28;20542;-77
2023/01/30 00:22:07;;;;;;;19.08;7.40;;;;;;;3.14;60.12;100989.84;4982193;28;20488;-77
2023/01/30 00:24:32;;;;;;;20.50;7.10;;;;;;;3.33;59.12;100988.00;4980663;28;20065;-76
2023/01/30 00:26:58;;;;;;;21.08;8.15;;;;;;;2.71;61.57;100983.22;4967024;28;20062;-77
2023/01/30 00:29:23;;;;;;;16.00;7.20;;;;;;;2.88;60.82;100983.09;4964777;28;20057;-77
2023/01/30 00:31:49;;;;;;;20.55;7.65;;;;;;;3.22;59.94;100982.03;4980954;28;20050;-75
2023/01/30 00:34:15;;;;;;;16.40;6.82;;;;;;;3.14;60.33;100970.03;4979861;28;20516;-76
2023/01/30 00:36:41;;;;;;;14.02;6.53;;;;;;;3.16;60.41;100946.78;4981784;28;20049;-76
2023/01/30 00:39:06;;;;;;;14.38;6.65;;;;;;;2.38;62.70;100942.09;4980908;28;20035;-77
2023/01/30 00:47:07;;;;;;;18.50;7.18;;;;;;;3.12;61.20;100940.78;4980629;28;20078;-77
2023/01/30 00:49:34;;;;;;;15.35;6.57;;;;;;;2.89;62.21;100938.38;4980823;28;20033;-76
2023/01/30 00:52:00;;;;;;;15.65;7.28;;;;;;;2.70;62.73;100932.44;4981058;28;20152;-77
2023/01/30 00:54:26;;;;;;;17.00;6.35;;;;;;;2.71;62.89;100939.34;4981988;28;20149;-76
2023/01/30 00:56:51;;;;;;;13.50;5.78;;;;;;;2.75;63.07;100935.00;4981452;28;20128;-77
2023/01/30 00:59:16;;;;;;;9.57;6.00;;;;;;;2.97;62.51;100930.56;4981101;28;20465;-76
2023/01/30 01:01:43;;;;;;;20.05;7.40;;;;;;;2.83;63.07;100932.38;4979552;28;20070;-76
2023/01/30 01:04:09;;;;;;;13.30;6.55;;;;;;;2.65;63.69;100943.69;4980926;28;20726;-75
2023/01/30 01:06:36;;;;;;;21.90;6.28;;;;;;;2.69;63.91;100933.34;4977724;28;20117;-76
2023/01/30 01:09:02;;;;;;;14.77;6.30;;;;;;;2.81;63.32;100923.78;4982200;28;20053;-76
2023/01/30 01:11:28;;;;;;;29.40;7.43;;;;;;;2.88;63.37;100915.13;4980154;28;20034;-76
2023/01/30 01:13:56;;;;;;;17.73;5.72;;;;;;;2.45;64.48;100924.00;4981646;28;20562;-75
2023/01/30 01:16:22;;;;;;;14.20;5.70;;;;;;;2.72;63.92;100910.06;4978641;28;20061;-76
2023/01/30 01:18:48;;;;;;;14.35;4.80;;;;;;;2.47;65.28;100898.22;4978544;28;20896;-76
2023/01/30 01:21:13;;;;;;;11.02;4.05;;;;;;;2.51;64.72;100905.03;4980594;28;20658;-75
2023/01/30 01:23:39;;;;;;;15.40;4.30;;;;;;;2.56;65.39;100903.31;4979250;28;20157;-76
2023/01/30 01:26:05;;;;;;;12.38;4.00;;;;;;;2.88;64.05;100884.16;4981401;28;20045;-75
2023/01/30 01:28:33;;;;;;;9.13;4.10;;;;;;;2.63;64.76;100899.81;4982228;28;20117;-76
2023/01/30 01:30:58;;;;;;;7.70;3.47;;;;;;;3.01;63.06;100890.09;4978013;28;21046;-75
2023/01/30 01:33:27;;;;;;;9.98;3.95;;;;;;;2.69;64.73;100891.16;4979362;28;20038;-76
2023/01/30 01:35:56;;;;;;;6.93;3.28;;;;;;;3.07;63.57;100888.31;4980737;28;20050;-76
2023/01/30 01:38:21;;;;;;;9.48;3.92;;;;;;;2.97;63.72;100894.41;4977381;28;20034;-75
2023/01/30 01:41:03;;;;;;;13.23;3.45;;;;;;;2.97;63.75;100889.25;4979910;28;20099;-76
2023/01/30 01:43:35;;;;;;;5.43;2.42;;;;;;;3.30;63.07;100872.63;4978551;28;20034;-76
2023/01/30 01:46:05;;;;;;;;;;;;;;;2.97;64.07;100874.59;4977998;28;20053;-76
2023/01/30 01:48:46;;;;;;;6.85;2.20;;;;;;;2.57;65.59;100864.56;4976284;28;19917;-75
2023/01/30 01:51:17;;;;;;;4.40;2.15;;;;;;;2.77;64.63;100856.69;4978952;28;20038;-75
2023/01/30 01:53:48;;;;;;;4.03;1.65;;;;;;;2.96;64.38;100864.31;4980293;28;20066;-76
2023/01/30 01:56:16;;;;;;;4.80;1.88;;;;;;;2.97;64.36;100848.78;4978989;28;20591;-76
2023/01/30 01:58:54;;;;;;;3.90;1.58;;;;;;;2.95;64.33;100841.91;4978736;28;20165;-76
2023/01/30 02:01:20;;;;;;;3.17;1.20;;;;;;;3.02;64.63;100848.72;4976826;28;20544;-76
2023/01/30 02:03:50;;;;;;;3.13;0.93;;;;;;;3.28;63.48;100856.25;4979619;28;20026;-75
2023/01/30 02:06:17;;;;;;;1.73;0.93;;;;;;;3.14;63.86;100856.38;4979591;28;20062;-75
2023/01/30 02:08:47;;;;;;;5.30;1.20;;;;;;;3.50;62.88;100856.91;4987255;28;20582;-75
2023/01/30 02:11:46;;;;;;;9.05;0.90;;;;;;;3.27;63.27;100846.81;4983969;28;20044;-75
2023/01/30 02:14:14;;;;;;;2.42;1.15;;;;;;;2.85;65.03;100838.56;4982087;28;20042;-75
2023/01/30 02:16:42;;;;;;;5.22;1.25;;;;;;;2.92;64.26;100847.97;4981265;28;20268;-76
2023/01/30 02:19:38;;;;;;;8.35;1.30;;;;;;;3.27;62.87;100833.88;4983802;28;20064;-76
2023/01/30 02:22:28;;;;;;;11.23;1.58;;;;;;;3.14;63.50;100820.22;4983638;28;20428;-76
2023/01/30 02:25:21;;;;;;;4.20;2.15;;;;;;;3.08;63.40;100822.88;4985533;28;20662;-76
2023/01/30 02:28:28;;;;;;;5.00;2.38;;;;;;;2.85;64.50;100823.09;4983310;28;20497;-76
2023/01/30 02:31:06;;;;;;;7.43;1.25;;;;;;;2.98;63.83;100831.59;4959247;28;20597;-77
2023/01/30 02:33:44;;;;;;;8.52;1.65;;;;;;;3.00;63.52;100824.66;4981377;28;20101;-77
2023/01/30 02:36:15;;;;;;;7.25;1.55;;;;;;;3.34;62.30;100812.31;4982770;28;20327;-77
2023/01/30 02:39:16;;;;;;;13.00;1.20;;;;;;;3.17;62.40;100829.66;4977868;28;20030;-76
2023/01/30 02:42:22;;;;;;;6.75;1.50;;;;;;;2.96;62.28;100815.25;4896905;29;20044;-77
2023/01/30 02:44:53;;;;;;;5.05;0.50;;;;;;;2.86;61.96;100808.44;4974355;28;20050;-77
2023/01/30 02:47:22;;;;;;;2.63;0.73;;;;;;;3.13;60.72;100818.50;4974996;28;20133;-77
2023/01/30 02:49:53;;;;;;;5.20;0.52;;;;;;;2.91;60.98;100817.88;4981478;28;20034;-79
2023/01/30 02:52:20;;;;;;;6.57;0.60;;;;;;;2.99;60.47;100820.38;4976210;28;20053;-77
2023/01/30 02:54:46;;;;;;;8.85;0.73;;;;;;;3.10;59.81;100813.38;4981651;28;20053;-76
2023/01/30 02:57:21;;;;;;;11.50;0.38;;;;;;;3.21;59.13;100812.44;4981010;28;20057;-77
2023/01/30 02:59:54;;;;;;;8.50;0.50;;;;;;;2.88;59.60;100812.72;4980315;28;20038;-77
2023/01/30 03:02:29;;;;;;;6.20;0.75;;;;;;;2.90;59.48;100792.91;4974425;28;20047;-77
2023/01/30 03:05:24;;;;;;;7.93;0.40;;;;;;;3.57;58.00;100799.09;4979543;28;20027;-76
2023/01/30 03:07:56;;;;;;;8.57;0.40;;;;;;;2.94;59.42;100791.16;4977465;28;20046;-77
2023/01/30 03:10:58;;;;;;;6.55;0.52;;;;;;;3.34;58.45;100793.38;4978844;28;20053;-76
2023/01/30 03:13:52;;;;;;;4.32;0.20;;;;;;;3.22;58.31;100796.03;4976337;28;20653;-77
2023/01/30 03:16:27;;;;;;;14.15;0.50;;;;;;;3.28;58.37;100806.31;4978922;28;20048;-76
2023/01/30 03:18:53;;;;;;;10.82;0.47;;;;;;;3.07;59.09;100808.25;4977569;28;20046;-77
2023/01/30 03:21:19;;;;;;;11.55;0.63;;;;;;;2.97;59.32;100793.72;4980383;28;20524;-76
2023/01/30 03:23:48;;;;;;;8.50;0.50;;;;;;;3.21;58.82;100781.44;4978013;28;20144;-76
2023/01/30 03:26:19;;;;;;;4.38;0.65;;;;;;;3.01;58.98;100792.81;4945944;28;20038;-76
2023/01/30 03:28:48;;;;;;;13.88;0.43;;;;;;;3.07;58.64;100805.66;4961349;28;20571;-76
2023/01/30 03:31:13;;;;;;;7.57;0.65;;;;;;;3.12;58.46;100798.72;4977068;28;20061;-76
2023/01/30 03:33:39;;;;;;;7.03;0.70;;;;;;;2.52;60.21;100788.94;4976200;28;20723;-75
2023/01/30 03:36:05;;;;;;;9.77;1.05;;;;;;;2.56;60.49;100792.34;4979056;28;20092;-76
2023/01/30 03:38:32;;;;;;;7.50;1.10;;;;;;;2.67;59.86;100790.53;4976038;28;20038;-76
2023/01/30 03:40:58;;;;;;;4.45;0.50;;;;;;;2.91;59.66;100771.41;4976631;28;20559;-76
2023/01/30 03:43:24;;;;;;;13.13;0.68;;;;;;;2.84;59.97;100789.53;4977590;28;20042;-76
2023/01/30 03:45:49;;;;;;;7.13;0.65;;;;;;;2.95;59.44;100787.69;4978939;28;20046;-76
2023/01/30 03:48:15;;;;;;;5.70;0.75;;;;;;;2.81;59.92;100792.16;4976762;28;20476;-76
2023/01/30 03:50:40;;;;;;;6.15;0.43;;;;;;;3.25;58.87;100775.34;4980374;28;20030;-77
2023/01/30 03:53:06;;;;;;;11.30;0.85;;;;;;;2.98;60.16;100787.69;4960388;28;20645;-76
2023/01/30 03:55:31;;;;;;;7.13;0.50;;;;;;;2.53;61.36;100785.50;4979977;28;20117;-76
2023/01/30 03:57:57;;;;;;;10.88;0.47;;;;;;;2.92;60.27;100761.94;4975509;28;20955;-76
2023/01/30 04:00:24;;;;;;;7.88;0.70;;;;;;;3.08;60.09;100781.53;4977765;28;20400;-76
2023/01/30 04:02:50;;;;;;;2.85;0.40;;;;;;;3.45;58.88;100783.78;4963680;28;20034;-76
2023/01/30 04:05:16;;;;;;;5.75;1.63;;;;;;;2.97;59.89;100791.13;4977029;28;20117;-76
2023/01/30 04:07:48;;;;;;;4.55;0.60;;;;;;;3.16;58.65;100794.41;4975402;28;20141;-76
2023/01/30 04:10:14;;;;;;;6.45;0.93;;;;;;;3.34;57.98;100795.97;4979094;28;20065;-77
2023/01/30 04:12:41;;;;;;;10.02;0.73;;;;;;;3.39;57.89;100795.00;4953343;28;20042;-76
2023/01/30 04:15:08;;;;;;;13.23;0.50;;;;;;;3.34;57.54;100796.81;4979909;28;20034;-76
2023/01/30 04:17:58;;;;;;;8.50;0.93;;;;;;;3.31;57.29;100795.97;4978267;28;20150;-77
2023/01/30 04:20:44;;;;;;;19.35;1.80;;;;;;;2.76;58.90;100807.69;4972282;28;20512;-76
2023/01/30 04:23:11;;;;;;;6.50;0.73;;;;;;;2.97;58.32;100804.03;4976500;28;20239;-77
2023/01/30 04:25:37;;;;;;;13.07;0.80;;;;;;;2.84;58.60;100799.84;4977120;28;20030;-77
2023/01/30 04:28:06;;;;;;;7.45;1.27;;;;;;;3.05;58.09;100794.50;4977448;28;20061;-77
2023/01/30 04:30:35;;;;;;;9.10;1.63;;;;;;;2.92;58.49;100788.59;4978430;28;21265;-77
2023/01/30 04:33:29;;;;;;;16.17;2.55;;;;;;;2.54;59.27;100791.50;4959377;28;20042;-76
2023/01/30 04:35:58;;;;;;;11.90;1.73;;;;;;;2.75;58.67;100795.63;4963162;28;20104;-76
2023/01/30 04:38:25;;;;;;;19.77;2.30;;;;;;;2.89;58.31;100793.78;4975840;28;20070;-76
2023/01/30 04:40:54;;;;;;;16.10;1.30;;;;;;;3.32;56.97;100782.19;4980779;28;20038;-76
2023/01/30 04:43:21;;;;;;;10.30;1.55;;;;;;;2.74;58.13;100788.75;4974484;28;20054;-76
2023/01/30 04:46:05;;;;;;;18.95;1.95;;;;;;;2.90;58.15;100797.22;4977710;28;20081;-76
2023/01/30 04:48:31;;;;;;;28.63;2.88;;;;;;;3.08;57.27;100793.59;4976265;28;20061;-76
2023/01/30 04:50:59;;;;;;;22.02;2.90;;;;;;;2.49;58.83;100798.44;4980495;28;20359;-76
2023/01/30 04:53:24;;;;;;;26.60;3.50;;;;;;;2.65;58.39;100800.03;4976222;28;20038;-77
2023/01/30 04:55:51;;;;;;;27.60;3.33;;;;;;;3.01;57.69;100791.97;4984110;28;20121;-76
2023/01/30 04:58:20;;;;;;;19.52;1.40;;;;;;;2.69;58.21;100798.25;4961556;28;20130;-77
2023/01/30 05:00:47;;;;;;;29.45;3.60;;;;;;;2.91;57.67;100812.72;4981928;28;20053;-76
2023/01/30 05:03:14;;;;;;;22.73;1.60;;;;;;;2.99;56.96;100815.22;4982619;28;20045;-76
2023/01/30 05:05:39;;;;;;;23.15;2.10;;;;;;;3.19;56.37;100815.88;4981034;28;20030;-76
2023/01/30 05:08:07;;;;;;;29.20;3.88;;;;;;;2.36;58.30;100815.72;4983737;28;20031;-76
2023/01/30 05:10:33;;;;;;;17.10;2.95;;;;;;;2.65;57.73;100815.50;4978330;28;20045;-76
2023/01/30 05:13:05;;;;;;;20.83;3.17;;;;;;;3.08;56.13;100809.09;4982786;28;20042;-77
2023/01/30 05:15:31;;;;;;;;;;;;;;;3.01;56.38;100818.63;4978936;28;20092;-77
2023/01/30 05:17:57;;;;;;;34.40;2.15;;;;;;;2.92;56.39;100813.56;4982049;28;20508;-76
2023/01/30 05:20:23;;;;;;;20.10;2.33;;;;;;;3.13;55.78;100803.00;4980507;28;20034;-76
2023/01/30 05:22:49;;;;;;;26.10;3.15;;;;;;;3.50;55.12;100820.75;4984045;28;20046;-76
2023/01/30 05:25:14;;;;;;;26.90;3.47;;;;;;;3.34;55.31;100816.63;4982316;28;20630;-76
2023/01/30 05:27:39;;;;;;;31.80;3.38;;;;;;;3.31;55.27;100824.38;4981754;28;20477;-76
2023/01/30 05:30:06;;;;;;;14.32;2.75;;;;;;;3.25;55.14;100832.16;4983640;28;20080;-76
2023/01/30 05:32:31;;;;;;;22.55;2.63;;;;;;;3.03;55.44;100816.91;4980823;28;20049;-77
2023/01/30 05:34:57;;;;;;;34.38;4.43;;;;;;;3.06;54.94;100819.44;4983118;28;20031;-76
2023/01/30 05:37:23;;;;;;;25.48;3.40;;;;;;;3.37;54.70;100814.00;4979873;28;20042;-77
2023/01/30 05:39:48;;;;;;;20.95;2.40;;;;;;;3.37;54.22;100817.44;4984505;28;20081;-77
2023/01/30 05:42:14;;;;;;;25.30;5.63;;;;;;;3.28;54.46;100809.75;4981549;28;20508;-76
2023/01/30 05:44:39;;;;;;;23.17;3.65;;;;;;;3.11;54.64;100807.34;4965917;28;20138;-75
2023/01/30 05:47:05;;;;;;;39.50;3.42;;;;;;;3.16;54.41;100808.16;4981217;28;20167;-79
2023/01/30 05:49:30;;;;;;;16.65;3.05;;;;;;;2.93;54.63;100820.41;4965775;28;20169;-77
2023/01/30 05:51:56;;;;;;;22.15;2.70;;;;;;;2.44;55.01;100808.75;4981512;28;20110;-76
2023/01/30 05:54:21;;;;;;;26.13;2.70;;;;;;;2.68;54.41;100815.47;4979130;28;20049;-77
2023/01/30 05:56:49;;;;;;;19.60;2.75;;;;;;;2.53;54.55;100815.59;4980443;28;20038;-77
2023/01/30 05:59:15;;;;;;;23.88;2.95;;;;;;;2.91;53.16;100819.56;4981605;28;20124;-75
2023/01/30 06:01:40;;;;;;;23.05;2.47;;;;;;;3.08;53.01;100809.94;4978965;28;20046;-76
2023/01/30 06:04:06;;;;;;;29.92;2.38;;;;;;;2.95;53.12;100819.53;4977917;28;20053;-76
2023/01/30 06:06:31;;;;;;;17.80;2.67;;;;;;;3.07;52.77;100825.44;4978658;28;20495;-76
2023/01/30 06:08:57;;;;;;;15.07;3.28;;;;;;;3.11;53.11;100809.94;4980571;28;20177;-76
2023/01/30 06:11:23;;;;;;;21.85;4.18;;;;;;;2.80;53.35;100804.22;4977785;28;20038;-75
2023/01/30 06:13:49;;;;;;;19.23;2.75;;;;;;;3.13;53.04;100808.16;4980352;28;20109;-76
2023/01/30 06:16:16;;;;;;;25.50;2.72;;;;;;;2.94;53.23;100817.00;4979973;28;20034;-77
2023/01/30 06:18:42;;;;;;;16.98;2.70;;;;;;;3.31;52.41;100807.16;4981385;28;20042;-77
2023/01/30 06:21:08;;;;;;;23.42;2.22;;;;;;;2.99;53.10;100797.13;4982602;28;20037;-76
2023/01/30 06:23:34;;;;;;;22.45;2.92;;;;;;;3.16;52.77;100802.16;4980897;28;20098;-77
2023/01/30 06:25:59;;;;;;;19.63;2.03;;;;;;;2.42;54.58;100799.31;4982480;28;20122;-77
2023/01/30 06:28:25;;;;;;;18.42;2.75;;;;;;;2.79;53.70;100792.16;4977688;28;20046;-76
2023/01/30 06:30:52;;;;;;;17.92;2.95;;;;;;;3.21;52.29;100795.19;4981757;28;20133;-77
2023/01/30 06:33:18;;;;;;;19.70;2.35;;;;;;;3.12;52.26;100795.28;4978887;28;20042;-76
2023/01/30 06:35:43;;;;;;;26.38;1.83;;;;;;;3.02;52.04;100788.50;4981008;28;20037;-76
2023/01/30 06:38:10;;;;;;;12.02;1.15;;;;;;;3.07;51.99;100799.63;4979551;28;20104;-77
2023/01/30 06:40:36;;;;;;;18.55;1.63;;;;;;;2.94;51.97;100804.06;4979130;28;20101;-75
2023/01/30 06:43:03;;;;;;;17.02;1.63;;;;;;;2.81;52.81;100808.50;4980069;28;20038;-77
2023/01/30 06:45:28;;;;;;;21.90;2.10;;;;;;;2.69;52.95;100806.88;4978758;28;20030;-77
2023/01/30 06:47:55;;;;;;;22.30;1.95;;;;;;;2.92;52.48;100810.97;4980733;28;20052;-76
2023/01/30 06:50:25;;;;;;;26.45;2.45;;;;;;;2.85;52.78;100799.00;4979920;28;20030;-76
2023/01/30 06:52:51;;;;;;;22.10;1.73;;;;;;;2.87;52.98;100800.69;4980561;28;20922;-75
2023/01/30 06:55:20;;;;;;;12.25;1.85;;;;;;;2.61;53.23;100800.91;4979628;28;20038;-77
2023/01/30 06:57:46;;;;;;;14.40;2.38;;;;;;;3.08;52.16;100806.53;4978892;28;20084;-77
2023/01/30 07:00:14;;;;;;;16.50;3.30;;;;;;;3.18;51.96;100809.00;4981525;28;20034;-77
2023/01/30 07:02:40;;;;;;;26.30;2.55;;;;;;;3.24;52.07;100807.22;4980165;28;20141;-77
2023/01/30 07:05:07;;;;;;;9.90;1.38;;;;;;;3.02;52.70;100820.34;4982543;28;20436;-77
2023/01/30 07:07:33;;;;;;;17.15;1.45;;;;;;;3.06;52.74;100826.34;4978136;28;20133;-77
2023/01/30 07:09:59;;;;;;;12.80;1.65;;;;;;;3.12;52.44;100819.38;4981684;28;20082;-77
2023/01/30 07:12:25;;;;;;;16.30;2.00;;;;;;;3.15;52.73;100823.66;4979200;28;20046;-76
2023/01/30 07:14:52;;;;;;;17.05;2.15;;;;;;;2.98;52.80;100829.00;4982090;28;20437;-76
2023/01/30 07:17:18;;;;;;;28.67;2.60;;;;;;;2.93;52.68;100830.75;4978951;28;20057;-77
2023/01/30 07:19:44;;;;;;;14.82;1.80;;;;;;;3.01;52.83;100823.81;4979540;28;20039;-75
2023/01/30 07:22:10;;;;;;;18.02;2.15;;;;;;;3.14;51.84;100820.22;4978265;28;20042;-77
2023/01/30 07:24:36;;;;;;;19.85;2.47;;;;;;;3.16;52.02;100815.06;4980763;28;20054;-77
2023/01/30 07:27:01;;;;;;;14.90;1.85;;;;;;;2.96;52.39;100823.84;4977745;28;20030;-77
2023/01/30 07:29:27;;;;;;;18.73;1.77;;;;;;;3.13;51.67;100836.56;4962605;28;20472;-77
2023/01/30 07:31:53;;;;;;;21.45;2.63;;;;;;;3.24;52.13;100825.28;4976784;28;20077;-77
2023/01/30 07:34:19;;;;;;;14.07;2.08;;;;;;;3.09;51.88;100842.66;4978893;28;20806;-77
2023/01/30 07:36:45;;;;;;;19.23;2.75;;;;;;;2.96;52.52;100835.91;4962282;28;20530;-77
2023/01/30 07:39:11;;;;;;;20.30;1.88;;;;;;;3.48;50.91;100838.00;4981280;28;20038;-77
2023/01/30 07:41:36;;;;;;;14.68;2.90;;;;;;;3.07;51.60;100839.25;4979890;28;20053;-78
2023/01/30 07:44:02;;;;;;;13.50;1.88;;;;;;;3.06;52.05;100837.50;4980251;28;20070;-78
2023/01/30 07:46:33;;;;;;;15.57;3.25;;;;;;;3.24;51.30;100836.47;4978972;28;20034;-79
2023/01/30 07:49:05;;;;;;;16.60;2.30;;;;;;;3.19;51.55;100835.69;4979742;28;20038;-77
2023/01/30 07:51:31;;;;;;;19.80;1.73;;;;;;;3.42;51.06;100843.22;4978293;28;20041;-78
2023/01/30 07:53:57;;;;;;;15.27;1.27;;;;;;;3.07;52.01;100828.91;4977135;28;20034;-78
2023/01/30 07:56:23;;;;;;;16.30;1.92;;;;;;;3.20;51.68;100824.47;4964106;28;20510;-77
2023/01/30 07:58:53;;;;;;;23.80;3.13;;;;;;;3.18;51.52;100839.16;4977790;28;20049;-77
2023/01/30 08:01:19;;;;;;;13.40;1.25;;;;;;;3.03;51.90;100827.22;4979874;28;20455;-78
2023/01/30 08:03:47;;;;;;;24.92;2.10;;;;;;;3.18;51.26;100821.06;4978902;28;20054;-77
2023/01/30 08:06:14;;;;;;;22.08;2.65;;;;;;;3.29;51.09;100820.97;4980947;28;20604;-77
2023/01/30 08:08:40;;;;;;;30.27;2.92;;;;;;;2.99;51.63;100830.69;4963248;28;20129;-77
2023/01/30 08:11:06;;;;;;;12.25;1.75;;;;;;;3.15;51.48;100821.06;4979156;28;20202;-76
2023/01/30 08:13:32;;;;;;;25.00;2.72;;;;;;;3.11;51.37;100825.44;4978424;28;20057;-76
2023/01/30 08:15:59;;;;;;;21.05;2.53;;;;;;;3.35;51.24;100820.91;4979956;28;20022;-77
2023/01/30 08:18:24;;;;;;;23.90;2.20;;;;;;;4.01;49.90;100831.31;4977442;28;20069;-76
2023/01/30 08:20:50;;;;;;;17.33;2.42;;;;;;;3.52;50.31;100824.16;4977769;28;20034;-77
2023/01/30 08:23:15;;;;;;;37.08;3.95;;;;;;;3.24;51.42;100814.97;4977285;28;20096;-77
2023/01/30 08:25:41;;;;;;;20.00;2.72;;;;;;;3.36;50.97;100814.88;4979407;28;20037;-77
2023/01/30 08:28:07;;;;;;;21.75;1.63;;;;;;;3.33;50.63;100820.06;4980882;28;20057;-77
2023/01/30 08:30:32;;;;;;;25.27;2.53;;;;;;;3.28;50.79;100825.25;4981866;28;20034;-75
2023/01/30 08:32:58;;;;;;;28.88;2.10;;;;;;;3.46;50.17;100815.63;4982177;28;20034;-78
2023/01/30 08:35:23;;;;;;;18.05;2.75;;;;;;;3.21;51.05;100815.00;4982107;28;20034;-77
2023/01/30 08:37:49;;;;;;;14.68;1.60;;;;;;;3.74;49.83;100811.00;4980479;28;20050;-78
2023/01/30 08:40:15;;;;;;;22.08;3.22;;;;;;;2.95;51.49;100818.69;4983248;28;20054;-77
2023/01/30 08:42:44;;;;;;;13.25;1.90;;;;;;;3.04;50.69;100818.59;4981126;28;20046;-78
2023/01/30 08:45:10;;;;;;;19.60;1.83;;;;;;;3.16;50.48;100828.81;4982751;28;20391;-76
2023/01/30 08:47:35;;;;;;;21.92;1.73;;;;;;;2.94;51.13;100827.31;4980956;28;20049;-77
2023/01/30 08:50:01;;;;;;;11.63;1.70;;;;;;;2.94;50.90;100812.66;4980905;28;20034;-77
2023/01/30 08:52:27;;;;;;;19.55;1.85;;;;;;;3.26;50.56;100826.13;4979930;28;20038;-77
2023/01/30 08:54:53;;;;;;;16.73;1.92;;;;;;;3.70;49.82;100825.69;4983914;28;20049;-81
2023/01/30 08:57:18;;;;;;;19.50;2.53;;;;;;;3.34;50.35;100829.53;4980032;28;20501;-77
2023/01/30 08:59:44;;;;;;;12.38;2.10;;;;;;;3.60;50.52;100834.41;4984855;28;20042;-77
2023/01/30 09:02:11;;;;;;;17.52;1.98;;;;;;;3.25;52.35;100822.72;4967275;28;20553;-77
2023/01/30 09:04:36;;;;;;;11.73;1.30;;;;;;;3.44;51.91;100836.31;4964520;28;20449;-77
2023/01/30 09:07:02;;;;;;;18.25;2.67;;;;;;;3.11;52.31;100840.94;4983902;28;20196;-76
2023/01/30 09:09:29;;;;;;;19.15;1.95;;;;;;;3.10;52.49;100831.44;4977334;28;20027;-74
2023/01/30 09:11:54;;;;;;;23.85;2.70;;;;;;;3.33;52.17;100814.91;4979880;28;20066;-75
2023/01/30 09:14:20;;;;;;;21.13;3.75;;;;;;;3.27;51.77;100805.47;4978392;28;20121;-75
2023/01/30 09:16:47;;;;;;;15.95;2.05;;;;;;;3.81;51.38;100828.13;4979372;28;20771;-77
2023/01/30 09:19:13;;;;;;;16.20;1.98;;;;;;;3.05;52.70;100837.56;4981278;28;20064;-76
2023/01/30 09:21:38;;;;;;;14.02;2.38;;;;;;;3.41;51.97;100822.59;4978985;28;20041;-76
2023/01/30 09:24:04;;;;;;;12.18;3.00;;;;;;;3.22;52.22;100811.53;4979840;28;20424;-76
2023/01/30 09:26:31;;;;;;;16.13;2.13;;;;;;;3.04;52.45;100818.59;4976099;28;20049;-76
2023/01/30 09:28:56;;;;;;;20.67;2.03;;;;;;;3.50;51.85;100807.81;4977060;28;20085;-75
2023/01/30 09:31:22;;;;;;;16.50;2.20;;;;;;;3.31;52.49;100819.22;4975920;28;20034;-76
2023/01/30 09:33:47;;;;;;;15.10;1.45;;;;;;;3.13;52.16;100822.81;4976371;28;20200;-76
2023/01/30 09:36:13;;;;;;;22.73;4.40;;;;;;;3.34;51.54;100807.13;4976828;28;20076;-76
2023/01/30 09:38:38;;;;;;;18.63;3.17;;;;;;;3.70;51.39;100809.31;4958872;28;20566;-77
2023/01/30 09:41:19;;;;;;;23.48;2.90;;;;;;;3.52;51.53;100811.25;4976575;28;20041;-76
2023/01/30 09:44:16;;;;;;;16.52;2.78;;;;;;;3.29;51.46;100805.47;4975853;28;20061;-76
2023/01/30 09:47:10;;;;;;;13.18;1.98;;;;;;;3.38;51.99;100813.09;4976772;28;20041;-75
2023/01/30 09:49:39;;;;;;;18.45;2.45;;;;;;;3.41;52.20;100807.06;4964060;28;20121;-78
2023/01/30 09:52:27;;;;;;;16.17;1.58;;;;;;;3.36;52.16;100815.72;4976951;28;25476;-76
2023/01/30 09:55:00;;;;;;;21.13;3.05;;;;;;;3.00;53.78;100788.50;4929113;28;20065;-76
2023/01/30 09:57:26;;;;;;;19.83;2.17;;;;;;;3.27;53.23;100795.13;4974679;28;20042;-76
2023/01/30 10:00:32;;;;;;;18.23;2.25;;;;;;;3.37;52.99;100790.75;4977284;28;20042;-75
2023/01/30 10:03:07;;;;;;;22.70;2.20;;;;;;;3.76;51.79;100793.69;4974963;28;20121;-76
2023/01/30 10:05:53;;;;;;;36.33;3.50;;;;;;;3.77;52.15;100791.09;4974272;28;20049;-76
2023/01/30 10:08:52;;;;;;;19.98;3.45;;;;;;;3.84;52.24;100804.81;4973430;28;20034;-75
2023/01/30 10:12:04;;;;;;;21.27;3.38;;;;;;;3.28;54.45;100826.97;4974467;28;20042;-75
2023/01/30 10:14:40;;;;;;;11.23;1.13;;;;;;;2.42;56.95;100849.22;4899340;29;20047;-74
2023/01/30 10:17:24;;;;;;;15.80;1.33;;;;;;;2.44;57.07;100851.78;4969487;28;20042;-75
2023/01/30 10:19:53;;;;;;;4.45;0.63;;;;;;;2.10;57.93;100844.25;4974957;28;20057;-76
2023/01/30 10:22:37;;;;;;;9.55;1.48;;;;;;;2.16;57.78;100826.16;4974853;28;20128;-75
2023/01/30 10:25:30;;;;;;;16.73;2.55;;;;;;;2.73;56.71;100836.97;4978079;28;20496;-75
2023/01/30 10:28:29;;;;;;;21.40;3.15;;;;;;;2.93;56.70;100841.06;4977634;28;20042;-75
2023/01/30 10:31:18;;;;;;;16.60;3.25;;;;;;;3.49;55.41;100842.31;4977327;28;20042;-75
2023/01/30 10:33:57;;;;;;;28.00;2.95;;;;;;;3.65;55.00;100840.41;4977169;28;20046;-76
2023/01/30 10:36:31;;;;;;;18.45;3.80;;;;;;;3.49;55.59;100826.78;4977347;28;20391;-76
2023/01/30 10:38:59;;;;;;;21.65;2.15;;;;;;;3.64;54.80;100836.09;4975359;28;20039;-76
2023/01/30 10:41:55;;;;;;;33.35;3.45;;;;;;;4.34;53.59;100836.03;4977266;28;20629;-76
2023/01/30 10:44:22;;;;;;;22.73;2.45;;;;;;;4.62;51.84;100833.88;4953939;28;20124;-75
2023/01/30 10:47:25;;;;;;;18.65;2.67;;;;;;;4.44;51.46;100840.19;4975673;28;20515;-75
2023/01/30 10:50:20;;;;;;;19.60;2.22;;;;;;;4.71;50.78;100843.25;4976813;28;20041;-76
2023/01/30 10:52:51;;;;;;;18.85;2.30;;;;;;;4.99;50.29;100854.88;4957197;28;20138;-76
2023/01/30 10:55:42;;;;;;;21.00;2.80;;;;;;;4.78;50.31;100839.66;4975282;28;20439;-76
2023/01/30 10:58:07;;;;;;;24.00;2.30;;;;;;;4.17;51.19;100844.88;4975232;28;20038;-76
2023/01/30 11:01:03;;;;;;;27.05;2.63;;;;;;;4.11;50.37;100842.38;4974980;28;20052;-75
2023/01/30 11:03:45;;;;;;;22.15;3.03;;;;;;;4.63;48.62;100845.94;4975507;28;20344;-75
2023/01/30 11:06:15;;;;;;;;;;;;;;;4.83;47.77;100837.84;4976811;28;20053;-74
2023/01/30 11:08:41;;;;;;;26.00;3.05;;;;;;;4.53;47.72;100854.72;4959809;28;20354;-76
2023/01/30 11:11:52;;;;;;;18.27;2.25;;;;;;;4.62;47.41;100842.50;4977503;28;20456;-76
2023/01/30 11:14:18;;;;;;;22.30;1.80;;;;;;;4.95;47.26;100852.38;4940258;28;20050;-76
2023/01/30 11:16:50;;;;;;;15.30;2.35;;;;;;;4.58;46.94;100842.56;4938611;28;20907;-75
2023/01/30 11:19:17;;;;;;;;;;;;;;;4.63;46.48;100840.75;4948371;28;20229;-77
2023/01/30 11:21:50;;;;;;;18.65;2.17;;;;;;;5.10;45.79;100857.31;4978134;28;19918;-77
2023/01/30 11:24:18;;;;;;;10.23;2.63;;;;;;;4.82;45.56;100842.19;4959110;28;20046;-76
2023/01/30 11:26:45;;;;;;;15.07;2.45;;;;;;;5.09;45.06;100862.50;4977589;28;20042;-76
2023/01/30 11:29:29;;;;;;;23.10;3.42;;;;;;;4.49;46.83;100873.78;4975934;28;20042;-76
2023/01/30 11:31:55;;;;;;;17.92;2.50;;;;;;;4.70;47.09;100864.81;4976838;28;20034;-76
2023/01/30 11:34:23;;;;;;;15.85;1.98;;;;;;;3.78;50.68;100910.88;4976316;28;20124;-76
2023/01/30 11:36:49;;;;;;;10.27;0.63;;;;;;;3.70;50.00;100884.28;4976758;28;20112;-76
2023/01/30 11:39:17;;;;;;;8.43;0.55;;;;;;;3.45;48.16;100874.22;4977397;28;20034;-74
2023/01/30 11:42:08;;;;;;;2.97;0.30;;;;;;;3.73;47.51;100881.66;4975060;28;20826;-75
2023/01/30 11:44:36;;;;;;;7.15;0.95;;;;;;;4.02;47.13;100892.50;4973689;28;21695;-76
2023/01/30 11:47:28;;;;;;;11.90;1.05;;;;;;;4.31;47.73;100914.56;4976100;28;20563;-75
2023/01/30 11:50:01;;;;;;;8.55;0.70;;;;;;;4.45;47.37;100916.09;4972689;28;20046;-75